• Join FlightAware (Why Join?)
  • Login
  • US Flag 
06:36AM EDT


 

Airport Tracker/Info


-or-


 

Live Flight TrackerFlight Track Log ✈ N208EZ ✈ 28-Apr-2012 ✈ KSKY - KDXR

Flight Track Log - Related Links

Times and Time Zones

All times are in EDT time to prevent confusion due to time zone crossing. See the N208EZ flight status page for this flight to view local times or setup timezone preferences in your user account.

Time Position Orientation Groundspeed Altitude Reporting Facility
EDT Latitude Longitude Course Direction KTS MPH feet Rate Location/Type
04:57PM 41.5419 -81.4236 89° East 121 139 6,200  Level Cleveland Center
04:58PM 41.5422 -81.3906 89° East 122 140 6,800 600 Climbing Cleveland Center
04:59PM 41.5425 -81.3517 85° East 120 138 7,400 600 Climbing Cleveland Center
05:00PM 41.5450 -81.3128 86° East 107 123 8,100 600 Climbing Cleveland Center
05:01PM 41.5472 -81.2739 94° East 102 117 8,600 480 Climbing Cleveland Center
05:02PM 41.5453 -81.2322 89° East 102 117 9,100 360 Climbing Cleveland Center
05:03PM 41.5456 -81.1908 86° East 107 123 9,400 360 Climbing Cleveland Center
05:04PM 41.5481 -81.1436 86° East 107 123 9,900 360 Climbing Cleveland Center
05:05PM 41.5503 -81.0964 90° East 113 130 10,200 360 Climbing Cleveland Center
05:06PM 41.5506 -81.0519 93° East 118 136 10,700 360 Climbing Cleveland Center
05:07PM 41.5486 -81.0047 90° East 123 142 11,000 180 Climbing Cleveland Center
05:08PM 41.5486 -80.9578 90° East 123 142 11,100 -60 Climbing Cleveland Center
05:09PM 41.5489 -80.9050 90° East 123 142 10,900 -180 Descending Cleveland Center
05:10PM 41.5489 -80.8467 87° East 141 162 10,800  Descending Cleveland Center
05:11PM 41.5511 -80.7967 90° East 141 162 10,900  Climbing Cleveland Center
05:12PM 41.5514 -80.7469 90° East 141 162 10,800  Descending Cleveland Center
05:13PM 41.5514 -80.6914 84° East 141 162 11,000 60 Climbing Cleveland Center
05:14PM 41.5556 -80.6386 93° East 141 162 11,000 -60 Level Cleveland Center
05:15PM 41.5536 -80.5831 87° East 141 162 10,900  Descending Cleveland Center
05:16PM 41.5556 -80.5278 90° East 141 162 11,000  Climbing Cleveland Center
05:17PM 41.5556 -80.4750 84° East 141 162 11,000  Level Cleveland Center
05:18PM 41.5597 -80.4194 90° East 141 162 11,000  Level Cleveland Center
05:19PM 41.5594 -80.3639 87° East 141 162 11,000  Level Cleveland Center
05:20PM 41.5614 -80.3111 87° East 141 162 11,000 -60 Level Cleveland Center
05:21PM 41.5633 -80.2583 84° East 141 162 10,900 -240 Descending Cleveland Center
05:22PM 41.5675 -80.2058 87° East 141 162 10,600 -300 Descending Cleveland Center
05:23PM 41.5694 -80.1531 87° East 141 162 10,300 -300 Descending Cleveland Center
05:24PM 41.5714 -80.1003 90° East 141 162 10,000 -240 Descending Cleveland Center
05:25PM 41.5711 -80.0503 90° East 141 162 9,900 -120 Descending Cleveland Center
05:26PM 41.5708 -79.9975 94° East 141 162 9,800 -180 Descending Cleveland Center
05:27PM 41.5683 -79.9475 90° East 141 162 9,600 -120 Descending Cleveland Center
05:28PM 41.5681 -79.8947 88° East 141 162 9,600 -120 Level Cleveland Center
05:29PM 41.5697 -79.8367 87° East 141 162 9,400 -120 Descending Cleveland Center
05:30PM 41.5717 -79.7894 87° East 141 162 9,400  Level Cleveland Center
05:31PM 41.5733 -79.7394 84° East 141 162 9,500 -60 Climbing Cleveland Center
05:32PM 41.5772 -79.6867 87° East 141 162 9,300 -60 Descending Cleveland Center
05:33PM 41.5789 -79.6367 91° East 141 162 9,400  Climbing Cleveland Center
05:34PM 41.5783 -79.5867 91° East 141 162 9,300 -60 Descending Cleveland Center
05:35PM 41.5778 -79.5339 87° East 141 162 9,300  Level Cleveland Center
05:36PM 41.5794 -79.4839 81° East 141 162 9,400  Climbing Cleveland Center
05:37PM 41.5853 -79.4339 91° East 141 162 9,400  Level Cleveland Center
05:38PM 41.5847 -79.3839 84° East 141 162 9,400  Level Cleveland Center
05:39PM 41.5883 -79.3339 87° East 141 162 9,500 60 Climbing Cleveland Center
05:40PM 41.5900 -79.2839 94° East 141 162 9,600  Climbing Cleveland Center
05:41PM 41.5872 -79.2311 91° East 141 162 9,600  Level Cleveland Center
05:42PM 41.5867 -79.1811 85° East 141 162 9,600 -120 Level Cleveland Center
05:43PM 41.5903 -79.1283 81° East 141 162 9,400 -120 Descending Cleveland Center
05:44PM 41.5958 -79.0811 88° East 141 162 9,400 -120 Level Cleveland Center
05:45PM 41.5972 -79.0339 88° East 141 162 9,200 -120 Descending Cleveland Center
05:46PM 41.5986 -78.9839 91° East 141 162 9,200 60 Level Cleveland Center
05:47PM 41.5981 -78.9367 91° East 136 157 9,400 120 Climbing Cleveland Center
05:48PM 41.5972 -78.8894 94° East 130 150 9,500  Climbing Cleveland Center
05:49PM 41.5944 -78.8394 94° East 130 150 9,500  Level Cleveland Center
05:50PM 41.5917 -78.7897 91° East 130 150 9,500 -60 Level Cleveland Center
05:51PM 41.5908 -78.7397 88° East 130 150 9,400 -60 Descending Cleveland Center
05:52PM 41.5922 -78.6897 88° East 130 150 9,400  Level Cleveland Center
05:53PM 41.5933 -78.6425 91° East 130 150 9,400  Level Cleveland Center
05:54PM 41.5925 -78.5897 91° East 130 150 9,500  Climbing Cleveland Center
05:55PM 41.5917 -78.5397 85° East 130 150 9,500  Level Cleveland Center
05:56PM 41.5950 -78.4925 88° East 130 150 9,500 60 Level Cleveland Center
05:57PM 41.5961 -78.4425 86° East 130 150 9,700  Climbing Cleveland Center
05:58PM 41.5992 -78.3894 88° East 130 150 9,500 -120 Descending Cleveland Center
05:59PM 41.6003 -78.3394 88° East 130 150 9,500 -60 Level Cleveland Center
06:00PM 41.6014 -78.2867 92° East 135 155 9,400 -60 Descending Cleveland Center
06:01PM 41.6003 -78.2367 91° East 135 155 9,400 -60 Level Cleveland Center
06:02PM 41.5994 -78.1867 89° East 135 155 9,300  Descending Cleveland Center
06:03PM 41.6003 -78.1367 98° East 135 155 9,400  Climbing Cleveland Center
06:04PM 41.5953 -78.0869 85° East 135 155 9,400 -60 Level Cleveland Center
06:05PM 41.5983 -78.0369 85° East 135 155 9,300  Descending Cleveland Center
06:06PM 41.6014 -77.9867 94° East 135 155 9,400  Climbing Cleveland Center
06:07PM 41.5989 -77.9364 95° East 147 169 9,400  Level New York Center
06:08PM 41.5958 -77.8861 86° East 147 169 9,400  Level New York Center
06:09PM 41.5986 -77.8364 85° East 142 163 9,500  Climbing New York Center
06:10PM 41.6019 -77.7814 83° East 142 163 9,500  Level New York Center
06:11PM 41.6069 -77.7292 91° East 142 163 9,600  Climbing New York Center
06:12PM 41.6061 -77.6764 94° East 142 163 9,600  Level New York Center
06:13PM 41.6031 -77.6178 88° East 142 163 9,700 60 Climbing New York Center
06:14PM 41.6042 -77.5650 92° East 142 163 9,800  Climbing New York Center
06:15PM 41.6031 -77.5094 93° East 142 163 9,800 -180 Level New York Center
06:16PM 41.6003 -77.4483 91° East 147 169 9,500 -240 Descending New York Center
06:17PM 41.5997 -77.3842 91° East 152 175 9,400 -120 Descending New York Center
06:18PM 41.5989 -77.3258 94° East 152 175 9,300 -120 Descending New York Center
06:19PM 41.5958 -77.2675 86° East 152 175 9,200  Descending New York Center
06:20PM 41.5986 -77.2150 92° East 147 169 9,400 60 Climbing New York Center
06:21PM 41.5972 -77.1622 92° East 142 163 9,400  Level New York Center
06:22PM 41.5958 -77.1092 89° East 142 163 9,500 120 Climbing New York Center
06:23PM 41.5967 -77.0567 93° East 142 163 9,700 240 Climbing New York Center
06:24PM 41.5947 -77.0119 90° East 136 157 10,100 420 Climbing New York Center
06:25PM 41.5950 -76.9678 97° East 130 150 10,600 420 Climbing New York Center
06:26PM 41.5911 -76.9231 90° East 124 143 11,000 420 Climbing New York Center
06:27PM 41.5914 -76.8758 89° East 124 143 11,500 240 Climbing New York Center
06:28PM 41.5919 -76.8258 95° East 124 143 11,500 -60 Level New York Center
06:29PM 41.5886 -76.7700 89° East 130 150 11,400 -120 Descending New York Center
06:30PM 41.5892 -76.7147 93° East 141 162 11,300 -60 Descending New York Center
06:31PM 41.5875 -76.6647 92° East 150 173 11,300 60 Level New York Center
06:32PM 41.5861 -76.6092 91° East 150 173 11,500 60 Climbing New York Center
06:33PM 41.5850 -76.5506 92° East 143 165 11,500  Level New York Center
06:34PM 41.5833 -76.4978 92° East 143 165 11,500  Level New York Center
06:35PM 41.5817 -76.4422 90° East 143 165 11,500 -60 Level New York Center
06:36PM 41.5819 -76.3922 92° East 143 165 11,400 -60 Descending New York Center
06:37PM 41.5806 -76.3367 89° East 143 165 11,400  Level New York Center
06:38PM 41.5814 -76.2758 93° East 143 165 11,400  Level New York Center
06:39PM 41.5794 -76.2231 92° East 143 165 11,500  Climbing New York Center
06:40PM 41.5778 -76.1675 90° East 143 165 11,500 -60 Level New York Center
06:41PM 41.5781 -76.1175 89° East 143 165 11,400  Descending New York Center
06:42PM 41.5786 -76.0619 92° East 143 165 11,500  Climbing New York Center
06:43PM 41.5772 -75.9981 90° East 143 165 11,500  Level New York Center
06:44PM 41.5775 -75.9456 95° East 149 171 11,600  Climbing New York Center
06:45PM 41.5736 -75.8869 93° East 149 171 11,500 -60 Descending New York Center
06:46PM 41.5717 -75.8342 89° East 149 171 11,500  Level New York Center
06:47PM 41.5725 -75.7703 90° East 155 178 11,500  Level New York Center
06:48PM 41.5728 -75.7122 87° East 155 178 11,500  Level New York Center
06:49PM 41.5750 -75.6597 92° East 155 178 11,600  Climbing New York Center
06:50PM 41.5736 -75.5931 90° East 161 185 11,600  Level New York Center
06:51PM 41.5736 -75.5347 87° East 161 185 11,600 -60 Level New York Center
06:52PM 41.5761 -75.4767 92° East 155 178 11,500  Descending New York Center
06:54PM 41.5725 -75.3650 93° East 159 183 11,600  Climbing Boston Center
06:55PM 41.5700 -75.3039 88° East 159 183 11,500 -180 Descending Boston Center
06:56PM 41.5717 -75.2400 88° East 164 189 11,300 -180 Descending Boston Center
06:57PM 41.5731 -75.1789 96° East 164 189 11,200 -120 Descending Boston Center
06:58PM 41.5683 -75.1150 95° East 158 182 11,100  Descending Boston Center
06:59PM 41.5639 -75.0456 94° East 165 190 11,200 120 Climbing Boston Center
07:00PM 41.5608 -74.9925 95° East 165 190 11,400 120 Climbing Boston Center
07:01PM 41.5561 -74.9258 88° East 159 183 11,500 60 Climbing Boston Center
07:02PM 41.5572 -74.8731 86° East 164 189 11,600 60 Climbing Boston Center
07:03PM 41.5608 -74.8067 95° East 157 181 11,700  Climbing Boston Center
07:04PM 41.5575 -74.7539 102° East 162 186 11,700  Level Boston Center
07:05PM 41.5464 -74.6869 107° East 162 186 11,700  Level Boston Center
07:06PM 41.5350 -74.6367 98° East 162 186 11,700 -180 Level Boston Center
07:07PM 41.5281 -74.5669 91° East 162 186 11,400 -420 Descending Boston Center
07:08PM 41.5269 -74.5086 95° East 162 186 10,900 -600 Descending Boston Center
07:09PM 41.5219 -74.4364 101° East 173 199 10,200 -780 Descending Boston Center
07:10PM 41.5128 -74.3750 105° East 179 206 9,400 -720 Descending Boston Center
07:11PM 41.4992 -74.3053 102° East 179 206 8,800 -600 Descending Boston Center
07:12PM 41.4897 -74.2442 102° East 179 206 8,200 -600 Descending Boston Center